Time;durP1;ratioP1;P1;durP2;ratioP2;P2;SDS_P1;SDS_P2;PMS_P1;PMS_P2;Temp;Humidity;BMP_temperature;BMP_pressure;BME280_temperature;BME280_humidity;BME280_pressure;Samples;Min_cycle;Max_cycle;Signal;HPM_P1;HPM_P2
2022/12/17 13:07:03;;;;;;;64.68;34.88;;;0.10;99.90;;;;;;5043213;28;20052;-77
2022/12/17 13:09:45;;;;;;;70.30;38.25;;;2.00;99.90;;;;;;5029469;28;21461;-77
2022/12/17 13:12:33;;;;;;;64.57;37.38;;;-1.70;99.90;;;;;;5026734;28;20099;-80
2022/12/17 13:15:05;;;;;;;65.57;37.05;;;0.20;99.90;;;;;;5043506;28;20056;-78
2022/12/17 13:17:37;;;;;;;70.22;36.92;;;0.20;99.90;;;;;;5055125;28;20207;-79
2022/12/17 13:20:24;;;;;;;63.90;35.72;;;0.50;99.90;;;;;;5047239;28;20095;-78
2022/12/17 13:23:05;;;;;;;66.78;35.65;;;0.20;99.90;;;;;;5039494;28;20053;-78
2022/12/17 13:25:30;;;;;;;65.53;36.33;;;0.20;99.90;;;;;;5045958;28;20040;-78
2022/12/17 13:27:56;;;;;;;70.07;38.95;;;-0.20;99.90;;;;;;5039668;28;20075;-80
2022/12/17 13:30:33;;;;;;;63.75;36.42;;;0.20;99.90;;;;;;5041013;28;20500;-79
2022/12/17 13:33:13;;;;;;;67.75;38.53;;;0.10;99.90;;;;;;5024849;28;20040;-80
2022/12/17 13:35:45;;;;;;;68.50;37.30;;;0.10;99.90;;;;;;5079059;28;20048;-79
2022/12/17 13:38:44;;;;;;;70.00;37.35;;;0.00;99.90;;;;;;5038904;28;20037;-79
2022/12/17 13:41:13;;;;;;;66.00;36.90;;;-0.60;99.90;;;;;;5043020;28;20670;-79
2022/12/17 13:43:51;;;;;;;64.68;34.75;;;0.10;99.90;;;;;;5062050;28;20045;-79
2022/12/17 13:46:21;;;;;;;64.82;37.17;;;0.00;99.90;;;;;;5059379;28;20436;-78
2022/12/17 13:48:59;;;;;;;65.47;36.83;;;1.90;99.90;;;;;;5046023;28;20528;-79
2022/12/17 13:51:27;;;;;;;76.18;37.50;;;-1.00;99.90;;;;;;5026368;28;20388;-76
2022/12/17 13:53:58;;;;;;;63.00;37.03;;;0.10;99.90;;;;;;5026369;28;20049;-78
2022/12/17 13:56:27;;;;;;;65.57;36.03;;;0.00;99.90;;;;;;4332580;28;10021629;-80
2022/12/17 13:58:55;;;;;;;69.70;37.83;;;-0.10;99.90;;;;;;5045871;28;20110;-81
2022/12/17 14:01:25;;;;;;;77.60;37.70;;;1.10;99.90;;;;;;5026566;28;20060;-80
2022/12/17 14:03:56;;;;;;;66.10;36.08;;;-0.10;99.90;;;;;;5028787;28;20055;-82
2022/12/17 14:06:26;;;;;;;66.22;37.65;;;1.30;99.90;;;;;;5044948;28;20047;-79
2022/12/17 14:08:53;;;;;;;71.40;37.83;;;-0.10;99.90;;;;;;5029252;28;20039;-80
2022/12/17 14:14:34;;;;;;;64.00;35.05;;;0.00;99.90;;;;;;5046553;28;20561;-74
2022/12/17 14:17:00;;;;;;;63.90;36.97;;;0.00;99.90;;;;;;5046921;28;20907;-79
2022/12/17 14:19:28;;;;;;;68.40;38.78;;;1.30;99.90;;;;;;5045984;28;20132;-78
2022/12/17 14:21:54;;;;;;;64.10;36.85;;;0.40;99.90;;;;;;5029415;28;20041;-77
2022/12/17 14:24:25;;;;;;;68.90;37.83;;;0.00;99.90;;;;;;5047648;28;20049;-78
2022/12/17 14:26:59;;;;;;;66.55;36.47;;;-0.10;99.90;;;;;;5048161;28;20044;-79
2022/12/17 14:29:28;;;;;;;65.47;36.45;;;-0.10;99.90;;;;;;5030540;28;20476;-76
2022/12/17 14:32:00;;;;;;;71.45;37.67;;;1.90;99.90;;;;;;5031864;28;20489;-75
2022/12/17 14:34:26;;;;;;;66.93;36.13;;;-0.20;99.90;;;;;;5028355;28;20049;-76
2022/12/17 14:36:57;;;;;;;72.07;38.88;;;-0.20;99.90;;;;;;5038056;28;20052;-77
2022/12/17 14:39:22;;;;;;;70.57;37.03;;;-0.30;99.90;;;;;;5044389;28;20392;-75
2022/12/17 14:44:33;;;;;;;69.47;37.90;;;-0.40;99.90;;;;;;5030788;28;20100;-76
2022/12/17 14:47:29;;;;;;;68.38;37.80;;;1.50;99.90;;;;;;5077618;28;20045;-75
2022/12/17 14:50:03;;;;;;;70.13;37.72;;;-0.40;99.90;;;;;;5057469;28;20512;-76
2022/12/17 14:52:35;;;;;;;69.05;36.88;;;-1.10;99.90;;;;;;5054433;28;20131;-76
2022/12/17 14:55:20;;;;;;;67.80;35.78;;;-0.60;99.90;;;;;;5037833;28;20083;-73
2022/12/17 14:57:46;;;;;;;76.55;38.67;;;-0.50;99.90;;;;;;5030168;28;20381;-77
2022/12/17 15:00:12;;;;;;;64.20;36.40;;;-0.60;99.90;;;;;;5047094;28;20045;-78
2022/12/17 15:02:38;;;;;;;69.03;37.08;;;-0.60;99.90;;;;;;5030208;28;20087;-77
2022/12/17 15:05:04;;;;;;;70.15;36.67;;;-0.70;99.90;;;;;;5045473;28;20076;-77
2022/12/17 15:07:30;;;;;;;64.00;35.53;;;-0.60;99.90;;;;;;5049086;28;20527;-77
2022/12/17 15:10:07;;;;;;;69.75;37.55;;;-0.60;99.90;;;;;;5047956;28;20040;-77
2022/12/17 15:12:33;;;;;;;71.85;38.83;;;-0.60;99.90;;;;;;5065053;28;20751;-80
2022/12/17 15:14:58;;;;;;;73.53;36.70;;;-0.90;99.90;;;;;;5035832;28;20068;-78
2022/12/17 15:17:24;;;;;;;70.00;37.42;;;-0.70;99.90;;;;;;5021893;28;20049;-79
2022/12/17 15:19:49;;;;;;;69.15;36.03;;;-0.70;99.90;;;;;;5076271;28;20044;-78
2022/12/17 15:22:16;;;;;;;71.30;38.25;;;-0.70;99.90;;;;;;5044342;28;20171;-79
2022/12/17 15:24:43;;;;;;;69.95;35.90;;;-0.90;99.90;;;;;;5074657;28;20128;-79
2022/12/17 15:27:13;;;;;;;65.03;35.38;;;-0.80;99.90;;;;;;5041171;28;20068;-77
2022/12/17 15:29:39;;;;;;;73.38;37.42;;;-1.00;99.90;;;;;;5043943;28;20053;-78
2022/12/17 15:32:05;;;;;;;63.65;33.90;;;-0.90;99.90;;;;;;5025916;28;20106;-78
2022/12/17 15:34:31;;;;;;;68.43;35.88;;;-0.50;99.90;;;;;;5073684;28;20052;-77
2022/12/17 15:36:57;;;;;;;64.70;34.90;;;-0.80;99.90;;;;;;5035913;28;20060;-77
2022/12/17 15:39:22;;;;;;;66.82;35.58;;;-0.50;99.90;;;;;;5039585;28;20507;-78
2022/12/17 15:44:32;;;;;;;66.10;35.05;;;-1.00;99.90;;;;;;5036768;28;20049;-77
2022/12/17 15:46:58;;;;;;;73.80;36.08;;;-1.00;99.90;;;;;;5039419;28;20122;-78
2022/12/17 15:49:23;;;;;;;65.70;35.53;;;-1.10;99.90;;;;;;5042330;28;20559;-78
2022/12/17 15:51:49;;;;;;;68.25;34.72;;;-1.10;99.90;;;;;;5045402;28;20057;-77
2022/12/17 15:54:14;;;;;;;82.10;44.42;;;-1.10;99.90;;;;;;5039359;28;20056;-77
2022/12/17 15:56:40;;;;;;;80.03;39.78;;;-1.20;99.90;;;;;;5043244;28;20041;-77
2022/12/17 15:59:06;;;;;;;73.95;37.72;;;-1.30;99.90;;;;;;5045698;28;20047;-77
2022/12/17 16:01:31;;;;;;;68.30;34.65;;;-1.40;99.90;;;;;;5042363;28;20103;-80
2022/12/17 16:03:57;;;;;;;67.53;34.15;;;-1.20;99.90;;;;;;5040080;28;20127;-78
2022/12/17 16:06:23;;;;;;;65.28;35.72;;;0.10;99.90;;;;;;5046985;28;20496;-80
2022/12/17 16:08:48;;;;;;;70.45;33.78;;;-1.40;99.90;;;;;;5023321;28;20053;-78
2022/12/17 16:11:14;;;;;;;68.45;34.58;;;-1.30;99.90;;;;;;5026090;28;20045;-77
2022/12/17 16:13:40;;;;;;;70.28;34.20;;;-1.90;99.90;;;;;;5026965;28;20045;-76
2022/12/17 16:16:07;;;;;;;71.90;35.53;;;-1.50;99.90;;;;;;5041916;28;20044;-77
2022/12/17 16:18:34;;;;;;;77.25;38.25;;;-1.40;99.90;;;;;;5036656;28;20056;-76
2022/12/17 16:21:04;;;;;;;66.03;36.47;;;-1.30;99.90;;;;;;5036800;28;20041;-75
2022/12/17 16:23:30;;;;;;;72.35;35.22;;;-1.40;99.90;;;;;;5039635;28;20047;-76
2022/12/17 16:26:01;;;;;;;73.53;35.83;;;0.50;99.90;;;;;;5029211;28;20074;-78
2022/12/17 16:28:28;;;;;;;79.90;35.05;;;-1.80;99.90;;;;;;5044968;28;20546;-77
2022/12/17 16:31:02;;;;;;;68.50;35.58;;;-1.50;99.90;;;;;;5040482;28;20492;-75
2022/12/17 16:33:37;;;;;;;74.10;39.05;;;-1.50;99.90;;;;;;5024800;28;20049;-79
2022/12/17 16:36:04;;;;;;;84.03;45.15;;;-1.60;99.90;;;;;;5044616;28;20045;-77
2022/12/17 16:38:30;;;;;;;72.82;35.80;;;-1.50;99.90;;;;;;5038059;28;20044;-78
2022/12/17 16:40:58;;;;;;;73.30;35.13;;;-0.70;99.90;;;;;;5037612;28;20067;-81
2022/12/17 16:43:25;;;;;;;71.82;35.75;;;-1.70;99.90;;;;;;5053102;28;20037;-78
2022/12/17 16:45:52;;;;;;;71.53;34.85;;;-1.70;99.90;;;;;;5025878;28;20056;-81
2022/12/17 16:48:19;;;;;;;77.68;37.78;;;-1.70;99.90;;;;;;5047997;28;20037;-82
2022/12/17 16:50:45;;;;;;;74.43;35.97;;;-1.40;99.90;;;;;;5032164;28;20037;-78
2022/12/17 16:53:11;;;;;;;80.65;37.63;;;-2.10;99.90;;;;;;5028922;28;20437;-77
2022/12/17 16:55:42;;;;;;;69.50;33.40;;;-0.40;99.90;;;;;;5050464;28;20555;-77
2022/12/17 16:58:08;;;;;;;79.50;37.20;;;-1.80;99.90;;;;;;5040887;28;20037;-79
2022/12/17 17:00:34;;;;;;;76.38;34.40;;;-1.90;99.90;;;;;;5026520;28;20094;-77
2022/12/17 17:03:00;;;;;;;72.47;35.95;;;-1.70;99.90;;;;;;5038458;28;20700;-76
2022/12/17 17:05:30;;;;;;;77.18;35.30;;;-2.50;99.90;;;;;;5043437;28;20509;-80
2022/12/17 17:07:56;;;;;;;73.47;34.35;;;-2.30;99.90;;;;;;5038789;28;20041;-85
2022/12/17 17:10:21;;;;;;;80.15;37.58;;;-2.60;99.90;;;;;;5040677;28;20041;-78
2022/12/17 17:12:49;;;;;;;72.25;33.33;;;-2.40;99.90;;;;;;5043137;28;20652;-77
2022/12/17 17:15:15;;;;;;;73.57;35.08;;;-2.00;99.90;;;;;;5038787;28;20087;-78
2022/12/17 17:17:41;;;;;;;71.43;34.47;;;-1.90;99.90;;;;;;5037613;28;20053;-78
2022/12/17 17:20:07;;;;;;;79.25;35.22;;;-2.00;99.90;;;;;;5038724;28;20041;-76
2022/12/17 17:22:32;;;;;;;75.10;33.38;;;-1.90;99.90;;;;;;5043424;28;20037;-78
2022/12/17 17:24:58;;;;;;;85.40;41.60;;;-1.90;99.90;;;;;;5036186;28;20044;-75
2022/12/17 17:27:23;;;;;;;74.20;34.08;;;-1.90;99.90;;;;;;5021542;28;20503;-76
2022/12/17 17:29:49;;;;;;;74.55;34.13;;;-2.10;99.90;;;;;;5020621;28;20056;-76
2022/12/17 17:32:15;;;;;;;68.63;32.85;;;-2.50;99.90;;;;;;5036915;28;20064;-75
2022/12/17 17:34:40;;;;;;;73.57;35.30;;;-2.50;99.90;;;;;;5040087;28;20041;-76
2022/12/17 17:37:06;;;;;;;77.05;36.28;;;0.30;99.90;;;;;;5042796;28;20120;-75
2022/12/17 17:39:33;;;;;;;73.28;35.92;;;-2.20;99.90;;;;;;5039343;28;20041;-78
2022/12/17 17:41:58;;;;;;;71.60;36.50;;;-1.70;99.90;;;;;;5020736;28;20034;-76
2022/12/17 17:44:24;;;;;;;76.18;35.05;;;-2.20;99.90;;;;;;5039401;28;20126;-77
2022/12/17 17:46:50;;;;;;;73.43;33.65;;;-2.30;99.90;;;;;;5055621;28;20051;-76
2022/12/17 17:49:16;;;;;;;77.10;33.10;;;-0.40;99.90;;;;;;5039400;28;20048;-77
2022/12/17 17:51:43;;;;;;;77.45;34.55;;;-2.20;99.90;;;;;;5038816;28;20045;-75
2022/12/17 17:54:09;;;;;;;76.18;33.58;;;-0.10;99.90;;;;;;5044249;28;20049;-77
2022/12/17 17:56:38;;;;;;;70.75;32.88;;;-2.70;99.90;;;;;;5040649;28;20036;-77
2022/12/17 17:59:06;;;;;;;71.63;31.08;;;-2.50;99.90;;;;;;5025686;28;20563;-77
2022/12/17 18:01:35;;;;;;;73.57;32.92;;;-3.00;99.90;;;;;;5045117;28;20037;-77
2022/12/17 18:04:02;;;;;;;73.75;33.08;;;-2.20;99.90;;;;;;5048484;28;20150;-77
2022/12/17 18:06:28;;;;;;;77.25;34.17;;;-2.20;99.90;;;;;;5031950;28;20051;-77
2022/12/17 18:08:56;;;;;;;71.18;31.80;;;-2.20;99.90;;;;;;5051097;28;20040;-78
2022/12/17 18:11:22;;;;;;;68.57;30.00;;;-2.20;99.90;;;;;;5035504;28;20124;-77
2022/12/17 18:13:55;;;;;;;71.18;32.47;;;-2.40;99.90;;;;;;5055304;28;20065;-77
2022/12/17 18:16:28;;;;;;;79.53;33.22;;;-2.20;99.90;;;;;;5043315;28;20086;-77
2022/12/17 18:18:58;;;;;;;82.68;38.08;;;-2.30;99.90;;;;;;5048053;28;20072;-77
2022/12/17 18:21:26;;;;;;;76.65;35.33;;;-2.30;99.90;;;;;;5056764;28;20044;-78
2022/12/17 18:24:04;;;;;;;81.07;34.35;;;-2.90;99.90;;;;;;5063672;28;20122;-74
2022/12/17 18:26:38;;;;;;;81.22;36.67;;;-2.30;99.90;;;;;;5038345;28;20040;-77
2022/12/17 18:29:25;;;;;;;72.40;34.53;;;-2.50;99.90;;;;;;5047911;28;20040;-77
2022/12/17 18:31:51;;;;;;;76.75;33.05;;;-2.50;99.90;;;;;;5030791;28;20163;-77
2022/12/17 18:34:19;;;;;;;70.13;31.50;;;-2.40;99.90;;;;;;5046657;28;20148;-76
2022/12/17 18:36:45;;;;;;;121.95;66.90;;;-2.50;99.90;;;;;;5047948;28;21381;-76
2022/12/17 18:39:16;;;;;;;80.50;35.15;;;-2.40;99.90;;;;;;5027282;28;20049;-76
2022/12/17 18:44:28;;;;;;;74.95;32.95;;;-2.80;99.90;;;;;;5036229;28;20459;-75
2022/12/17 18:46:55;;;;;;;71.03;33.25;;;-2.60;99.90;;;;;;5041494;28;20045;-75
2022/12/17 18:49:22;;;;;;;75.45;32.13;;;-2.60;99.90;;;;;;5027722;28;20902;-74
2022/12/17 18:51:49;;;;;;;75.65;31.80;;;-0.30;99.90;;;;;;5015143;28;20040;-76
2022/12/17 18:54:26;;;;;;;80.43;34.30;;;-2.70;99.90;;;;;;5018989;28;20040;-75
2022/12/17 18:56:56;;;;;;;75.18;32.83;;;-2.50;99.90;;;;;;5036159;28;20122;-75
2022/12/17 18:59:24;;;;;;;71.03;31.05;;;-3.90;99.90;;;;;;5040384;28;20492;-76
2022/12/17 19:01:50;;;;;;;79.38;33.92;;;-3.00;99.90;;;;;;5020240;28;20048;-75
2022/12/17 19:04:18;;;;;;;84.72;36.22;;;-2.50;99.90;;;;;;5038596;28;20041;-75
2022/12/17 19:06:47;;;;;;;76.93;35.53;;;-2.50;99.90;;;;;;5042538;28;20045;-75
2022/12/17 19:09:30;;;;;;;79.72;33.28;;;-2.70;99.90;;;;;;5040901;28;20036;-74
2022/12/17 19:11:56;;;;;;;80.20;35.13;;;-2.50;99.90;;;;;;5040543;28;20041;-75
2022/12/17 19:14:23;;;;;;;75.85;32.30;;;-1.70;99.90;;;;;;5023851;28;20071;-74
2022/12/17 19:16:52;;;;;;;67.88;32.65;;;-4.30;99.90;;;;;;5039407;28;20052;-75
2022/12/17 19:19:18;;;;;;;74.70;32.67;;;-2.50;99.90;;;;;;5062605;28;20049;-73
2022/12/17 19:21:44;;;;;;;79.35;31.77;;;-2.70;99.90;;;;;;5044220;28;20057;-74
2022/12/17 19:24:15;;;;;;;71.07;32.17;;;0.10;99.90;;;;;;5040311;28;20045;-74
2022/12/17 19:26:41;;;;;;;71.80;30.05;;;-1.10;99.90;;;;;;5021706;28;20045;-73
2022/12/17 19:29:09;;;;;;;72.50;33.35;;;-2.50;99.90;;;;;;5028627;28;20136;-73
2022/12/17 19:31:35;;;;;;;71.85;31.00;;;-2.70;99.90;;;;;;5033117;28;20041;-75
2022/12/17 19:34:04;;;;;;;73.22;33.17;;;-3.30;99.90;;;;;;5024197;28;20064;-74
2022/12/17 19:36:31;;;;;;;67.00;30.45;;;-2.70;99.90;;;;;;5042975;28;20041;-74
2022/12/17 19:39:01;;;;;;;70.97;32.30;;;-2.60;99.90;;;;;;5025573;28;20059;-73
2022/12/17 19:41:27;;;;;;;69.88;32.58;;;-1.30;99.90;;;;;;5045229;28;20130;-75
2022/12/17 19:43:58;;;;;;;75.80;34.65;;;-2.60;99.90;;;;;;5023460;28;20052;-74
2022/12/17 19:46:25;;;;;;;66.13;32.70;;;-3.00;99.90;;;;;;5043447;28;20045;-75
2022/12/17 19:48:51;;;;;;;75.30;33.38;;;-4.60;99.90;;;;;;5035242;28;20037;-74
2022/12/17 19:51:21;;;;;;;65.65;32.70;;;-2.60;99.90;;;;;;5027260;28;20052;-74
2022/12/17 19:53:47;;;;;;;72.85;33.47;;;-3.20;99.90;;;;;;5026750;28;20051;-74
2022/12/17 19:56:13;;;;;;;64.78;29.63;;;-2.70;99.90;;;;;;5042847;28;20055;-74
2022/12/17 19:58:39;;;;;;;65.15;32.40;;;-2.70;99.90;;;;;;5051707;28;20076;-73
2022/12/17 20:01:11;;;;;;;68.72;31.73;;;-2.60;99.90;;;;;;5034778;28;20041;-75
2022/12/17 20:03:38;;;;;;;73.28;31.38;;;-2.60;99.90;;;;;;5046157;28;20619;-76
2022/12/17 20:06:05;;;;;;;66.90;32.50;;;-2.70;99.90;;;;;;5042796;28;20044;-74
2022/12/17 20:08:31;;;;;;;68.35;30.95;;;-2.70;99.90;;;;;;5025071;28;20049;-74
2022/12/17 20:10:59;;;;;;;63.40;30.77;;;-2.80;99.90;;;;;;5041018;28;20076;-76
2022/12/17 20:13:24;;;;;;;64.55;30.65;;;-3.00;99.90;;;;;;5044268;28;20055;-77
2022/12/17 20:16:01;;;;;;;65.45;32.13;;;0.00;99.90;;;;;;5053925;28;20045;-73
2022/12/17 20:18:27;;;;;;;70.18;34.47;;;-0.40;99.90;;;;;;5022452;28;20139;-74
2022/12/17 20:21:03;;;;;;;67.88;33.25;;;-0.20;99.90;;;;;;5033744;28;20052;-74
2022/12/17 20:23:29;;;;;;;68.25;31.58;;;-2.20;99.90;;;;;;5053023;28;20041;-75
2022/12/17 20:26:07;;;;;;;75.20;35.47;;;-2.80;99.90;;;;;;5036321;28;20591;-76
2022/12/17 20:28:36;;;;;;;71.63;36.35;;;-2.80;99.90;;;;;;5040761;28;20120;-75
2022/12/17 20:31:02;;;;;;;68.75;34.03;;;-0.90;99.90;;;;;;5038739;28;20155;-75
2022/12/17 20:33:28;;;;;;;73.57;34.63;;;-0.90;99.90;;;;;;5019640;28;20041;-76
2022/12/17 20:35:55;;;;;;;76.80;34.72;;;-2.90;99.90;;;;;;5041718;28;20045;-75
2022/12/17 20:38:21;;;;;;;67.15;32.65;;;-1.50;99.90;;;;;;5041748;28;20047;-75
2022/12/17 20:40:47;;;;;;;70.63;34.40;;;-2.80;99.90;;;;;;5040541;28;20045;-75
2022/12/17 20:43:13;;;;;;;73.32;35.40;;;-2.90;99.90;;;;;;5021634;28;20049;-76
2022/12/17 20:45:47;;;;;;;70.50;34.22;;;-2.80;99.90;;;;;;5042378;28;20045;-76
2022/12/17 20:48:13;;;;;;;70.90;34.90;;;-2.90;99.90;;;;;;5025342;28;20033;-75
2022/12/17 20:50:39;;;;;;;78.47;36.08;;;-2.90;99.90;;;;;;5037862;28;20282;-75
2022/12/17 20:53:06;;;;;;;74.18;37.30;;;-2.80;99.90;;;;;;5040022;28;20041;-75
2022/12/17 20:55:31;;;;;;;78.45;37.97;;;-2.90;99.90;;;;;;5041785;28;20041;-76
2022/12/17 20:57:57;;;;;;;74.55;36.40;;;-1.10;99.90;;;;;;5022738;28;20036;-75
2022/12/17 21:00:23;;;;;;;74.93;34.95;;;-1.10;99.90;;;;;;5020938;28;20183;-74
2022/12/17 21:02:49;;;;;;;70.88;35.38;;;-3.00;99.90;;;;;;5024857;28;20090;-74
2022/12/17 21:05:16;;;;;;;68.75;35.15;;;-1.70;99.90;;;;;;5021918;28;20049;-75
2022/12/17 21:07:43;;;;;;;69.82;34.65;;;-2.90;99.90;;;;;;5051472;28;20029;-74
2022/12/17 21:10:08;;;;;;;69.55;33.10;;;-0.40;99.90;;;;;;5033181;28;20044;-75
2022/12/17 21:15:18;;;;;;;77.38;35.63;;;-2.30;99.90;;;;;;5041079;28;20083;-75
2022/12/17 21:17:44;;;;;;;71.47;35.92;;;-3.00;99.90;;;;;;5041602;28;20099;-75
2022/12/17 21:20:11;;;;;;;66.63;34.80;;;-3.00;99.90;;;;;;5024233;28;20038;-75
2022/12/17 21:22:40;;;;;;;73.75;34.97;;;-2.90;99.90;;;;;;5042363;28;20130;-76
2022/12/17 21:25:07;;;;;;;72.80;36.80;;;-3.10;99.90;;;;;;5041773;28;20049;-75
2022/12/17 21:27:33;;;;;;;70.97;36.30;;;-3.00;99.90;;;;;;5020618;28;20044;-76
2022/12/17 21:29:59;;;;;;;65.97;35.00;;;-3.20;99.90;;;;;;5037552;28;20053;-76
2022/12/17 21:32:24;;;;;;;75.10;35.78;;;-3.00;99.90;;;;;;5042047;28;20029;-75
2022/12/17 21:34:50;;;;;;;70.43;36.55;;;-3.40;99.90;;;;;;5043381;28;20053;-75
2022/12/17 21:37:16;;;;;;;75.20;37.15;;;-3.20;99.90;;;;;;5031781;28;20078;-75
2022/12/17 21:39:42;;;;;;;70.65;37.17;;;-2.30;99.90;;;;;;5025937;28;20037;-75
2022/12/17 21:44:52;;;;;;;72.18;37.30;;;-3.10;99.90;;;;;;5044921;28;20045;-77
2022/12/17 21:47:18;;;;;;;77.47;37.60;;;-3.30;99.90;;;;;;5056186;28;20039;-77
2022/12/17 21:49:44;;;;;;;80.15;37.58;;;-2.90;99.90;;;;;;5038122;28;20073;-75
2022/12/17 21:52:13;;;;;;;76.22;36.38;;;-2.40;99.90;;;;;;5043040;28;20037;-74
2022/12/17 21:54:39;;;;;;;74.00;36.63;;;-3.20;99.90;;;;;;5027468;28;20053;-78
2022/12/17 21:57:04;;;;;;;76.15;35.25;;;-5.10;99.90;;;;;;5044388;28;20049;-75
2022/12/17 21:59:30;;;;;;;73.97;36.30;;;-3.00;99.90;;;;;;5027856;28;20069;-75
2022/12/17 22:01:56;;;;;;;79.90;36.00;;;-3.10;99.90;;;;;;5065205;28;20056;-75
2022/12/17 22:04:22;;;;;;;74.45;37.53;;;-3.00;99.90;;;;;;5031557;28;20166;-75
2022/12/17 22:06:48;;;;;;;76.32;36.78;;;-3.10;99.90;;;;;;5063478;28;20048;-77
2022/12/17 22:09:14;;;;;;;68.63;34.92;;;-3.10;99.90;;;;;;5030712;28;20369;-74
2022/12/17 22:11:40;;;;;;;74.00;37.65;;;-3.00;99.90;;;;;;5047241;28;20095;-75
2022/12/17 22:14:08;;;;;;;79.45;35.88;;;-3.10;99.90;;;;;;5052718;28;20793;-76
2022/12/17 22:16:41;;;;;;;79.07;37.40;;;-3.10;99.90;;;;;;5026630;28;20056;-75
2022/12/17 22:19:13;;;;;;;73.57;35.30;;;-3.00;99.90;;;;;;5046949;28;20128;-75
2022/12/17 22:21:41;;;;;;;74.75;37.13;;;-3.20;99.90;;;;;;5046413;28;20051;-75
2022/12/17 22:24:11;;;;;;;70.95;33.78;;;-2.80;99.90;;;;;;5029753;28;20045;-75
2022/12/17 22:26:40;;;;;;;74.90;35.67;;;-3.20;99.90;;;;;;5049115;28;20515;-76
2022/12/17 22:29:06;;;;;;;81.30;37.90;;;;;;;;;;5064597;28;20041;-75
2022/12/17 22:34:16;;;;;;;84.13;39.50;;;-3.30;99.90;;;;;;5049160;28;20135;-77
2022/12/17 22:36:42;;;;;;;83.85;37.20;;;-3.30;99.90;;;;;;5031803;28;20183;-77
2022/12/17 22:39:11;;;;;;;80.15;36.97;;;-2.00;99.90;;;;;;5048005;28;20029;-77
2022/12/17 22:44:23;;;;;;;81.45;37.67;;;-3.30;99.90;;;;;;5056137;28;20456;-77
2022/12/17 22:46:49;;;;;;;85.05;39.10;;;-3.20;99.90;;;;;;5027090;28;20056;-76
2022/12/17 22:49:15;;;;;;;79.65;37.22;;;-3.10;99.90;;;;;;5031472;28;20394;-76
2022/12/17 22:51:42;;;;;;;80.53;36.63;;;-3.00;99.90;;;;;;5032094;28;20032;-79
2022/12/17 22:54:09;;;;;;;79.43;37.22;;;-0.40;99.90;;;;;;5031973;28;20053;-76
2022/12/17 22:56:38;;;;;;;78.45;36.33;;;-2.80;99.90;;;;;;5041041;28;20053;-76
2022/12/17 22:59:04;;;;;;;79.53;38.53;;;-1.30;99.90;;;;;;5029836;28;20044;-77
2022/12/17 23:01:31;;;;;;;76.05;35.72;;;-1.10;99.90;;;;;;5047539;28;20056;-76
2022/12/17 23:03:58;;;;;;;87.72;37.45;;;-3.10;99.90;;;;;;5025393;28;20041;-75
2022/12/17 23:06:25;;;;;;;87.20;39.10;;;-2.20;99.90;;;;;;5030212;28;20041;-77
2022/12/17 23:08:52;;;;;;;91.35;40.47;;;-3.20;99.90;;;;;;5046939;28;20049;-75
2022/12/17 23:11:23;;;;;;;84.10;35.88;;;-2.80;99.90;;;;;;5041583;28;20096;-75
2022/12/17 23:13:49;;;;;;;89.07;38.85;;;-3.10;99.90;;;;;;5024859;28;20049;-75
2022/12/17 23:16:16;;;;;;;87.72;39.00;;;-3.40;99.90;;;;;;5036554;28;20857;-73
2022/12/17 23:18:43;;;;;;;93.38;40.10;;;-3.20;99.90;;;;;;5039266;28;20150;-73
2022/12/17 23:21:16;;;;;;;92.80;39.50;;;-3.60;99.90;;;;;;5035130;28;20056;-73
2022/12/17 23:23:42;;;;;;;87.82;37.20;;;-3.20;99.90;;;;;;5035717;28;20109;-73
2022/12/17 23:26:09;;;;;;;88.20;38.53;;;-1.10;99.90;;;;;;5040792;28;20057;-73
2022/12/17 23:28:38;;;;;;;87.75;39.92;;;-3.10;99.90;;;;;;5037716;28;20119;-73
2022/12/17 23:31:12;;;;;;;87.63;36.50;;;-1.20;99.90;;;;;;5040820;28;20537;-76
2022/12/17 23:33:38;;;;;;;88.30;38.33;;;-3.10;99.90;;;;;;5044357;28;20041;-75
2022/12/17 23:36:10;;;;;;;89.50;38.60;;;-3.10;99.90;;;;;;5044712;28;20594;-75
2022/12/17 23:38:37;;;;;;;87.93;38.30;;;-3.20;99.90;;;;;;5039534;28;20037;-73
2022/12/17 23:41:05;;;;;;;80.70;35.95;;;-3.30;99.90;;;;;;5039307;28;20033;-74
2022/12/17 23:43:32;;;;;;;84.43;38.25;;;-3.10;99.90;;;;;;5041077;28;20468;-74
2022/12/17 23:45:58;;;;;;;84.80;37.33;;;-1.40;99.90;;;;;;5022943;28;20057;-74
2022/12/17 23:48:27;;;;;;;85.85;36.50;;;-3.20;99.90;;;;;;5051823;28;20392;-73
2022/12/17 23:50:52;;;;;;;88.50;37.17;;;-3.20;99.90;;;;;;5051168;28;20048;-73
2022/12/17 23:53:18;;;;;;;86.43;36.20;;;-0.80;99.90;;;;;;5030812;28;20039;-74
2022/12/17 23:55:43;;;;;;;90.38;37.38;;;-3.20;99.90;;;;;;5052871;28;20032;-73
2022/12/17 23:58:09;;;;;;;79.60;35.95;;;-3.50;99.90;;;;;;5048460;28;20093;-76
